Treasure Island

Jonathan Swift

(30 November 1667 – 19 October 1745 / Dublin)

Stats

» Click to list general statistics » OR, select a date :

General Statistics

Visitors of the poet

Number of visitors of the poet’s mainpage in PoemHunter.Com

Attention : Numbers in this table does not indicate the total hits of poems of the poet, but indicates the hits of the poet’s main page.

Date Hits
08/31/2014 Sunday 224
51%
08/30/2014 Saturday 163
37%
08/29/2014 Friday 193
44%
08/28/2014 Thursday 210
48%
08/27/2014 Wednesday 166
38%
08/26/2014 Tuesday 171
39%
08/25/2014 Monday 217
49%
08/24/2014 Sunday 435
100%
08/23/2014 Saturday 316
72%
08/22/2014 Friday 288
66%
08/21/2014 Thursday 188
43%
08/20/2014 Wednesday 222
51%
08/19/2014 Tuesday 167
38%
08/18/2014 Monday 165
37%
08/17/2014 Sunday 177
40%
08/16/2014 Saturday 212
48%
08/15/2014 Friday 223
51%
08/14/2014 Thursday 186
42%
08/13/2014 Wednesday 227
52%
08/12/2014 Tuesday 192
44%

Reader rating & num.of MyPoemList’s

Click the captions of columns to change the order.

# Poem Title Submit Date Reader Rating Num.of MyPoemList’s
Rating Num.R.
1 Epitaph In Berkeley Church-Yard, Gloucestershire 04/12/2010 5.5 10 0
2 Mrs Frances Haris's Petition 01/03/2003 5.3 13 11
3 On Stephen Duck, the Thresher, and Favourite Poet. A Quibbl 01/01/2004 5.5 20 7
4 Stella's Birthday March 13, 1719 04/12/2010 5.5 20 0
5 The Fable Of Midas 04/12/2010 5.5 20 0
6 On Cutting Down The Thorn At Market-Hill 04/12/2010 5.8 22 0
7 The Place of the Damned 04/12/2010 5.5 22 0
8 The Beasts' Confession 01/01/2004 5.5 23 8
9 Oysters 01/03/2003 6.0 27 11
10 On A Circle 04/12/2010 5.2 24 1
11 On A Shadow In A Glass 04/12/2010 5.0 24 0
12 Phillis, Or, the Progress of Love 04/12/2010 5.4 29 0
13 A Pastoral Dialogue 04/12/2010 5.5 30 0
14 The Author Upon Himself 04/12/2010 5.5 31 0
15 Louisa To Strephon 04/12/2010 5.7 32 0
16 Jack Frenchman’s Lamentation 04/12/2010 5.5 32 0
17 On A Corkscrew 04/12/2010 5.6 33 0
18 Fontinella To Florinda 04/12/2010 5.5 33 0
19 Lines Written Extempore On Mr. Harley’s Being Stabbed, And Addressed To His Physician, 1710-11 04/12/2010 5.4 33 0
20 On A Cannon 04/12/2010 5.6 34 0
21 On An Ill-Managed House 04/12/2010 5.2 33 0
22 Stella At Wood Park, A House Of Charles Ford, Esq., Near Dublin 04/12/2010 5.5 35 0
23 Robin And Harry 04/12/2010 5.5 35 0
24 On A Pair Of Dice 04/12/2010 5.3 34 0
25 On A Pen 04/12/2010 5.3 34 0
26 Mrs Frances Haris's Petition 04/12/2010 5.3 34 0
27 The Lady's Dressing Room 04/12/2010 5.2 34 1
28 The Progress of Poetry 04/12/2010 5.3 35 0
29 On Snow 04/12/2010 5.5 37 0
30 Mr. William Crowe’s Address To Her Majesty, Turned Into Metre 04/12/2010 5.4 36 0
31 On Gold 04/12/2010 5.2 36 0
32 Riddles By Dr. Swift And His Friends 04/12/2010 5.5 39 0
33 On The Moon 04/12/2010 5.5 39 1
34 Verses on the Death of Doctor Swift 01/03/2003 5.9 42 16
35 Horace, Epist. I, VII Imitation Of Horace To Lord Oxford 04/12/2010 5.5 39 0
36 On A Very Old Glass At Market-Hill 04/12/2010 5.4 39 0
37 To Stella, Who Collected and Transcribed His Poems 01/03/2003 5.8 42 13
38 Peace And Dunkirk 04/12/2010 5.2 38 0
39 Sid Hamet’s Rod 04/12/2010 5.5 40 0
40 The Beasts' Confession 04/12/2010 5.5 40 0
41 The Dean’s Reasons For Not Building At Drapier’s-Hill 04/12/2010 5.5 40 0
42 A Satirical Elegy 01/13/2003 5.9 43 16
43 On A Candle 04/12/2010 5.1 37 0
44 My Lady’s Lamantation And Complaint Against The Dean 04/12/2010 5.0 37 0
45 On A Horn 04/12/2010 5.0 37 0
46 The Progress of Poetry 01/03/2003 5.7 42 13
47 The Grand Question Debated: Whether Hamilton’s Bawn Should Be Turned Into A Barrack Or Malt-House 04/12/2010 5.5 41 0
48 Elegy Upon Tiger 01/03/2003 5.7 43 14
49 The Fagot 04/12/2010 5.5 42 0
50 To Stella, Written On The Day Of Her Birth. March 13, 1723-4, But Not On The Subject, When I Was Sick In Bed 04/12/2010 5.6 43 0
51 The Progress Of Marriage 04/12/2010 5.4 43 0
52 On Stella's Birth-Day, 1719 01/03/2003 5.5 44 14
53 Stella’s Birth-Day: A Great Bottle Of Wine, Long Buried, Being That Day Dug Up. 1722-3 04/12/2010 5.3 43 0
54 Lady Acheson Weary Of The Dean 04/12/2010 5.3 43 0
55 Stella's Birthday March 13, 1727 04/12/2010 5.7 47 0
56 Stella's Birthday March 13, 1719 01/01/2004 5.5 45 8
57 Mutton 04/12/2010 5.1 42 0
58 On Stephen Duck, the Thresher, and Favourite Poet. A Quibbl 04/12/2010 5.4 45 0
59 The Garden Plot 04/12/2010 5.6 47 0
60 On The Vowels 04/12/2010 5.7 48 0
61 On Ink 04/12/2010 5.6 48 0
62 On The Posteriors 04/12/2010 5.4 47 0
63 On Himself 04/12/2010 5.6 50 0
64 On The World 04/12/2010 5.5 51 0
65 The Place of the Damned 01/03/2003 5.9 55 13
66 Oysters 04/12/2010 5.4 51 0
67 Verses on the Death of Dr. Swift, D.S.P.D. 04/12/2010 5.1 49 0
68 The Gulf of All Human Possessions 04/12/2010 5.5 53 0
69 On Time 04/12/2010 5.3 51 0
70 To Stella On Her Birth-Day, 1721-2 04/12/2010 5.5 54 0
71 Stella's Birthday, March 13, 1726 04/12/2010 5.5 55 0
72 Stella's Birthday March 13, 1727 01/01/2004 5.7 57 10
73 Parody On The Recorder’s Speech To His Grace The Duke Of Ormond, 4th July, 1711 04/12/2010 5.6 58 0
74 Market Women’s Cries 04/12/2010 5.0 52 0
75 Daphne 04/12/2010 5.7 59 0
76 The Famous Speech-Maker Of England Or Baron (Alias Barren) Lovel’s Charge At The Assizes At Exon, April 5, 1710 04/12/2010 5.5 57 0
77 The Virtues Of Sid Hamet The Magician’s Rod 04/12/2010 5.4 56 0
78 The Dean’s Answer 04/12/2010 5.1 53 0
79 Phillis, Or, the Progress of Love 01/03/2003 5.9 62 13
80 To Stella, Who Collected and Transcribed His Poems 04/12/2010 5.4 58 0
81 Stella’s Birth-Day.1719-20 04/12/2010 5.8 62 0
82 Answered Extempore By Dr. Swift 04/12/2010 5.8 63 0
83 Toland’s Invitation To Dismal To Dine With The Calve’s Head Club 04/12/2010 5.7 62 0
84 The Sick Lion and the Ass 04/12/2010 5.3 58 1
85 On The Five Senses 04/12/2010 5.3 59 0
86 The Revolution At Market-Hill 04/12/2010 5.5 62 0
87 Atlas; Or The Minister Of State 04/12/2010 5.7 65 1
88 Stella’s Birth-Day. 1724-5 04/12/2010 4.8 56 0
89 To Lady Carteret 04/12/2010 5.4 65 0
90 Corinna 04/12/2010 5.5 67 0
91 Bec’s Birth-Day Nov. 8, 1726 04/12/2010 5.4 66 0
92 To Stella Visiting Me in My Sickness 04/12/2010 5.3 67 0
93 Cadenus And Vanessa 04/12/2010 5.0 66 1
94 The Windsor Prophecy 04/12/2010 5.6 74 0
95 To Quilca, A Country-House in no very good Repair 04/12/2010 5.4 72 0
96 A Receipt To Restore Stella’s Youth. 1724-5 04/12/2010 5.0 67 0
97 An Excellent New Song Being The Intended Speech Of A Famous Orator Against Peace 04/12/2010 5.5 74 0
98 A Satirical Elegy on the Death of a Late Famous General 01/03/2003 5.6 76 16
99 A Description of a City Shower 01/03/2003 5.4 74 20
100 Dingley And Brent 04/12/2010 5.3 73 0
101 On The Gallows 04/12/2010 5.6 77 0
102 A Panegyric Of The Dean In The Person Of A Lady In The North 04/12/2010 5.2 72 0
103 Elegy On Partridge 04/12/2010 5.9 84 0
104 Dean Swift At Sir Arthur Acheson’s In The North Of Ireland 04/12/2010 5.2 74 0
105 A Riddle 04/12/2010 5.4 78 2
106 A Description of the Morning 01/03/2003 5.6 82 21
107 Advice to the Grub Street Verse-writers 01/01/2004 5.0 73 7
108 Death And Daphne 04/12/2010 5.3 80 0
109 A Beautiful Young Nymph Going To Bed 01/13/2003 6.2 94 62
110 Twelve Articles 04/12/2010 4.6 71 0
111 Ballad 04/12/2010 5.0 77 0
112 Baucis And Philemon 04/12/2010 5.3 81 0
113 An Echo 04/12/2010 4.8 74 2
114 A New Year’s Gift For Bec 04/12/2010 5.3 86 0
115 A Maypole 01/03/2003 5.6 101 11
[Hata Bildir]